createdAt,value
2017-12-04T00:02:06.704Z,85.70
2017-12-04T00:04:34.968Z,85.70
2017-12-04T00:07:04.413Z,85.70
2017-12-04T00:09:32.708Z,86.00
2017-12-04T00:12:07.688Z,85.90
2017-12-04T00:14:37.654Z,86.00
2017-12-04T00:17:11.286Z,86.00
2017-12-04T00:19:39.641Z,86.00
2017-12-04T00:22:08.330Z,86.00
2017-12-04T00:24:35.872Z,86.00
2017-12-04T00:27:07.772Z,86.00
2017-12-04T00:29:35.391Z,85.90
2017-12-04T00:32:19.060Z,86.50
2017-12-04T00:35:00.649Z,86.50
2017-12-04T00:37:30.762Z,86.30
2017-12-04T00:40:01.278Z,86.40
2017-12-04T00:45:14.486Z,86.20
2017-12-04T00:47:52.077Z,86.20
2017-12-04T00:50:23.643Z,86.20
2017-12-04T00:52:53.532Z,86.20
2017-12-04T00:55:28.837Z,86.10
2017-12-04T00:57:57.253Z,86.10
2017-12-04T01:00:25.885Z,86.10
2017-12-04T01:02:55.141Z,86.10
2017-12-04T01:05:24.576Z,86.10
2017-12-04T01:10:40.661Z,86.10
2017-12-04T01:13:09.764Z,86.10
2017-12-04T01:15:48.590Z,86.20
2017-12-04T01:24:02.282Z,86.40
2017-12-04T01:26:47.245Z,86.30
2017-12-04T01:29:22.321Z,86.60
2017-12-04T01:31:56.185Z,86.20
2017-12-04T01:34:25.866Z,86.30
2017-12-04T01:36:58.467Z,86.30
2017-12-04T01:39:28.430Z,86.50
2017-12-04T01:41:57.468Z,86.40
2017-12-04T01:44:28.272Z,86.30
2017-12-04T01:47:25.398Z,86.30
2017-12-04T01:50:02.718Z,86.30
2017-12-04T01:52:40.682Z,86.30
2017-12-04T01:55:11.459Z,86.40
2017-12-04T02:00:35.797Z,86.30
2017-12-04T02:03:16.350Z,86.30
2017-12-04T02:05:48.686Z,86.40
2017-12-04T02:08:21.191Z,86.40
2017-12-04T02:10:50.634Z,86.40
2017-12-04T02:13:28.502Z,86.40
2017-12-04T02:15:56.844Z,86.40
2017-12-04T02:18:25.411Z,86.30
2017-12-04T02:20:53.008Z,86.40
2017-12-04T02:23:21.257Z,86.40
2017-12-04T02:25:48.788Z,86.40
2017-12-04T02:28:17.197Z,86.40
2017-12-04T02:30:44.691Z,86.40
2017-12-04T02:33:12.213Z,86.40
2017-12-04T02:35:40.353Z,86.40
2017-12-04T02:38:08.624Z,86.40
2017-12-04T02:40:36.138Z,86.40
2017-12-04T02:43:03.641Z,86.40
2017-12-04T02:45:31.917Z,86.50
2017-12-04T02:48:00.200Z,86.60
2017-12-04T02:50:28.497Z,86.60
2017-12-04T02:52:56.049Z,86.60
2017-12-04T02:55:23.698Z,86.60
2017-12-04T02:57:51.991Z,86.60
2017-12-04T03:00:19.516Z,86.50
2017-12-04T03:02:46.980Z,86.60
2017-12-04T03:05:15.239Z,86.70
2017-12-04T03:07:42.741Z,86.60
2017-12-04T03:10:10.193Z,86.60
2017-12-04T03:12:38.469Z,86.60
2017-12-04T03:15:06.721Z,86.70
2017-12-04T03:17:34.201Z,86.60
2017-12-04T03:20:03.376Z,86.70
2017-12-04T03:22:30.878Z,86.60
2017-12-04T03:24:58.384Z,86.70
2017-12-04T03:27:25.859Z,86.60
2017-12-04T03:29:54.166Z,86.70
2017-12-04T03:32:21.645Z,86.60
2017-12-04T03:34:49.126Z,86.80
2017-12-04T03:37:16.639Z,86.70
2017-12-04T03:39:44.104Z,86.80
2017-12-04T03:42:11.590Z,86.80
2017-12-04T03:44:39.079Z,86.80
2017-12-04T03:47:07.338Z,86.90
2017-12-04T03:49:34.820Z,86.80
2017-12-04T03:52:03.087Z,86.80
2017-12-04T03:54:30.501Z,86.80
2017-12-04T03:56:57.920Z,87.70
2017-12-04T03:59:25.628Z,86.80
2017-12-04T04:01:53.311Z,86.80
2017-12-04T04:04:20.729Z,86.80
2017-12-04T04:06:48.162Z,86.80
2017-12-04T04:09:15.938Z,86.80
2017-12-04T04:11:43.391Z,86.80
2017-12-04T04:14:10.818Z,86.80
2017-12-04T04:16:39.022Z,86.80
2017-12-04T04:19:06.458Z,86.80
2017-12-04T04:21:34.647Z,87.00
2017-12-04T04:24:02.118Z,87.00
2017-12-04T04:26:29.544Z,87.00
2017-12-04T04:28:57.737Z,87.80
2017-12-04T04:31:25.172Z,87.10
2017-12-04T04:33:53.385Z,87.10
2017-12-04T04:36:20.842Z,87.10
2017-12-04T04:38:48.266Z,87.00
2017-12-04T04:41:15.689Z,87.00
2017-12-04T04:43:43.129Z,87.00
2017-12-04T04:46:10.557Z,87.00
2017-12-04T04:48:38.006Z,87.10
2017-12-04T04:51:05.447Z,87.10
2017-12-04T04:53:33.685Z,87.20
2017-12-04T04:56:01.114Z,87.20
2017-12-04T04:58:28.553Z,87.10
2017-12-04T05:00:55.994Z,87.10
2017-12-04T05:03:24.188Z,87.20
2017-12-04T05:05:51.643Z,87.20
2017-12-04T05:08:19.075Z,87.20
2017-12-04T05:10:47.310Z,87.30
2017-12-04T05:13:14.748Z,87.20
2017-12-04T05:15:42.188Z,87.20
2017-12-04T05:18:09.615Z,87.40
2017-12-04T05:20:37.813Z,87.50
2017-12-04T05:23:05.253Z,87.40
2017-12-04T05:25:33.449Z,87.40
2017-12-04T05:28:00.877Z,87.40
2017-12-04T05:30:29.096Z,87.50
2017-12-04T05:32:56.522Z,87.40
2017-12-04T05:35:24.742Z,87.40
2017-12-04T05:37:52.174Z,87.40
2017-12-04T05:40:19.615Z,87.50
2017-12-04T05:42:47.829Z,87.50
2017-12-04T05:45:15.276Z,87.40
2017-12-04T05:47:42.722Z,87.50
2017-12-04T05:50:10.162Z,87.60
2017-12-04T05:52:37.636Z,87.60
2017-12-04T05:55:05.074Z,87.50
2017-12-04T05:57:32.514Z,87.60
2017-12-04T06:00:00.725Z,87.60
2017-12-04T06:02:28.162Z,87.60
2017-12-04T06:04:55.589Z,87.60
2017-12-04T06:07:23.030Z,87.50
2017-12-04T06:09:50.744Z,87.70
2017-12-04T06:12:19.186Z,87.60
2017-12-04T06:14:46.606Z,87.60
2017-12-04T06:17:14.058Z,87.60
2017-12-04T06:19:41.500Z,87.60
2017-12-04T06:22:08.936Z,87.50
2017-12-04T06:24:37.138Z,87.70
2017-12-04T06:27:04.609Z,87.70
2017-12-04T06:29:32.036Z,87.70
2017-12-04T06:31:59.481Z,87.70
2017-12-04T06:34:27.703Z,87.70
2017-12-04T06:36:55.141Z,87.70
2017-12-04T06:39:22.586Z,87.70
2017-12-04T06:41:50.023Z,87.70
2017-12-04T06:44:18.249Z,87.60
2017-12-04T06:46:45.700Z,87.60
2017-12-04T06:49:13.171Z,87.60
2017-12-04T06:51:40.628Z,87.60
2017-12-04T06:54:08.082Z,87.50
2017-12-04T06:56:35.542Z,87.80
2017-12-04T06:59:02.973Z,87.80
2017-12-04T07:01:30.446Z,87.90
2017-12-04T07:03:57.863Z,87.80
2017-12-04T07:06:26.077Z,87.80
2017-12-04T07:08:53.738Z,87.80
2017-12-04T07:11:21.159Z,87.70
2017-12-04T07:13:48.605Z,87.90
2017-12-04T07:16:16.813Z,87.80
2017-12-04T07:18:44.281Z,87.80
2017-12-04T07:21:11.714Z,87.90
2017-12-04T07:23:39.135Z,87.90
2017-12-04T07:26:06.584Z,87.90
2017-12-04T07:28:34.017Z,87.90
2017-12-04T07:31:01.470Z,87.90
2017-12-04T07:33:28.910Z,88.00
2017-12-04T07:35:56.351Z,88.00
2017-12-04T07:38:23.794Z,87.90
2017-12-04T07:40:51.994Z,88.00
2017-12-04T07:43:19.434Z,88.00
2017-12-04T07:45:47.650Z,88.00
2017-12-04T07:48:15.077Z,87.90
2017-12-04T07:50:42.517Z,87.90
2017-12-04T07:53:10.719Z,88.00
2017-12-04T07:55:38.190Z,88.00
2017-12-04T07:58:05.639Z,88.10
2017-12-04T08:00:33.066Z,88.00
2017-12-04T08:03:01.289Z,88.10
2017-12-04T08:05:28.714Z,88.10
2017-12-04T08:07:56.173Z,88.30
2017-12-04T08:10:23.619Z,88.30
2017-12-04T08:12:51.053Z,88.10
2017-12-04T08:15:18.502Z,88.20
2017-12-04T08:17:45.942Z,88.50
2017-12-04T08:20:13.394Z,88.30
2017-12-04T08:22:40.831Z,88.30
2017-12-04T08:25:08.298Z,88.30
2017-12-04T08:27:35.734Z,88.30
2017-12-04T08:30:03.169Z,88.30
2017-12-04T08:32:31.388Z,88.30
2017-12-04T08:34:58.838Z,88.30
2017-12-04T08:37:26.277Z,88.30
2017-12-04T08:39:53.719Z,88.20
2017-12-04T08:42:21.187Z,88.30
2017-12-04T08:44:48.627Z,88.80
2017-12-04T08:47:16.828Z,88.70
2017-12-04T08:49:44.278Z,88.70
2017-12-04T08:52:11.718Z,88.70
2017-12-04T08:54:39.925Z,88.70
2017-12-04T08:57:07.378Z,88.60
2017-12-04T08:59:34.842Z,88.80
2017-12-04T09:02:02.294Z,88.70
2017-12-04T09:04:29.767Z,88.60
2017-12-04T09:06:57.178Z,88.60
2017-12-04T09:09:25.385Z,88.60
2017-12-04T09:11:52.828Z,88.60
2017-12-04T09:14:20.266Z,88.60
2017-12-04T09:16:48.490Z,88.60
2017-12-04T09:19:15.934Z,88.60
2017-12-04T09:21:43.387Z,88.60
2017-12-04T09:24:10.834Z,89.00
2017-12-04T09:26:38.283Z,89.10
2017-12-04T09:29:05.730Z,89.20
2017-12-04T09:31:33.167Z,89.50
2017-12-04T09:34:01.401Z,89.00
2017-12-04T09:36:28.851Z,88.90
2017-12-04T09:38:56.290Z,89.30
2017-12-04T09:41:23.737Z,89.30
2017-12-04T09:43:51.183Z,89.20
2017-12-04T09:46:19.397Z,89.30
2017-12-04T09:48:46.822Z,89.20
2017-12-04T09:51:14.351Z,89.00
2017-12-04T09:53:41.722Z,89.20
2017-12-04T09:56:09.935Z,89.00
2017-12-04T09:58:37.382Z,88.90
2017-12-04T10:01:04.822Z,89.10
2017-12-04T10:03:33.039Z,88.90
2017-12-04T10:06:00.464Z,88.90
2017-12-04T10:08:27.937Z,88.80
2017-12-04T10:10:55.370Z,88.90
2017-12-04T10:13:22.805Z,88.90
2017-12-04T10:15:51.024Z,89.20
2017-12-04T10:18:18.468Z,88.80
2017-12-04T10:20:45.910Z,88.80
2017-12-04T10:23:14.122Z,88.70
2017-12-04T10:25:41.579Z,88.70
2017-12-04T10:28:08.997Z,88.80
2017-12-04T10:30:37.218Z,88.80
2017-12-04T10:33:04.660Z,88.80
2017-12-04T10:35:32.102Z,88.80
2017-12-04T10:37:59.539Z,88.80
2017-12-04T10:40:27.754Z,88.90
2017-12-04T10:42:55.210Z,88.80
2017-12-04T10:45:22.654Z,88.90
2017-12-04T10:47:50.093Z,88.90
2017-12-04T10:50:18.298Z,88.90
2017-12-04T10:52:45.726Z,88.90
2017-12-04T10:55:13.169Z,88.90
2017-12-04T10:57:41.382Z,89.00
2017-12-04T11:00:08.823Z,88.80
2017-12-04T11:02:36.267Z,89.00
2017-12-04T11:05:04.507Z,89.30
2017-12-04T11:07:31.961Z,89.20
2017-12-04T11:09:59.403Z,89.20
2017-12-04T11:12:26.854Z,89.10
2017-12-04T11:14:54.299Z,89.10
2017-12-04T11:17:21.757Z,89.00
2017-12-04T11:19:49.188Z,89.20
2017-12-04T11:22:16.633Z,89.50
2017-12-04T11:24:44.837Z,89.70
2017-12-04T11:27:12.282Z,89.70
2017-12-04T11:29:39.721Z,89.90
2017-12-04T11:32:07.938Z,89.60
2017-12-04T11:34:35.390Z,89.50
2017-12-04T11:37:02.857Z,89.70
2017-12-04T11:39:30.288Z,89.90
2017-12-04T11:41:57.725Z,89.70
2017-12-04T11:44:25.936Z,89.50
2017-12-04T11:46:53.379Z,89.50
2017-12-04T11:49:20.817Z,89.50
2017-12-04T11:51:49.039Z,89.50
2017-12-04T11:54:16.487Z,89.50
2017-12-04T11:56:44.048Z,89.40
2017-12-04T11:59:11.461Z,89.30
2017-12-04T12:01:39.688Z,89.30
2017-12-04T12:04:07.129Z,89.40
2017-12-04T12:06:34.584Z,89.30
2017-12-04T12:09:02.027Z,89.40
2017-12-04T12:11:29.475Z,89.40
2017-12-04T12:13:56.914Z,89.50
2017-12-04T12:16:25.136Z,90.00
2017-12-04T12:18:52.570Z,89.40
2017-12-04T12:21:20.014Z,89.40
2017-12-04T12:23:48.225Z,89.80
2017-12-04T12:26:15.685Z,89.80
2017-12-04T12:28:43.118Z,89.70
2017-12-04T12:31:10.553Z,89.60
2017-12-04T12:33:38.760Z,89.70
2017-12-04T12:36:06.198Z,89.50
2017-12-04T12:38:33.632Z,89.70
2017-12-04T12:41:01.840Z,90.10
2017-12-04T12:43:29.286Z,90.10
2017-12-04T12:45:57.478Z,89.70
2017-12-04T12:48:24.913Z,89.70
2017-12-04T12:50:52.359Z,89.80
2017-12-04T12:53:20.577Z,89.70
2017-12-04T12:55:48.022Z,89.70
2017-12-04T12:58:15.469Z,90.00
2017-12-04T13:00:42.906Z,90.00
2017-12-04T13:03:11.126Z,89.70
2017-12-04T13:05:38.559Z,89.70
2017-12-04T13:08:06.006Z,89.70
2017-12-04T13:10:33.450Z,89.70
2017-12-04T13:13:01.670Z,89.60
2017-12-04T13:15:29.110Z,89.60
2017-12-04T13:17:56.554Z,89.60
2017-12-04T13:20:23.991Z,89.60
2017-12-04T13:22:51.438Z,89.90
2017-12-04T13:25:18.871Z,89.70
2017-12-04T13:27:46.330Z,89.70
2017-12-04T13:30:13.770Z,89.70
2017-12-04T13:32:53.268Z,89.90
2017-12-04T13:35:33.503Z,89.80
2017-12-04T13:38:00.950Z,89.70
2017-12-04T13:40:28.395Z,90.30
2017-12-04T13:42:55.846Z,90.00
2017-12-04T13:45:23.290Z,90.20
2017-12-04T13:47:50.747Z,90.10
2017-12-04T13:50:18.193Z,90.10
2017-12-04T13:52:45.626Z,90.10
2017-12-04T13:55:13.850Z,90.00
2017-12-04T13:57:41.277Z,90.00
2017-12-04T14:00:08.725Z,90.10
2017-12-04T14:02:36.166Z,90.10
2017-12-04T14:05:04.355Z,90.10
2017-12-04T14:07:31.790Z,90.10
2017-12-04T14:10:00.003Z,90.00
2017-12-04T14:12:27.442Z,90.00
2017-12-04T14:14:54.890Z,90.10
2017-12-04T14:17:23.105Z,90.20
2017-12-04T14:19:50.558Z,90.10
2017-12-04T14:22:18.002Z,90.10
2017-12-04T14:24:45.449Z,90.10
2017-12-04T14:27:12.891Z,90.20
2017-12-04T14:29:41.119Z,90.10
2017-12-04T14:32:08.563Z,90.10
2017-12-04T14:34:36.006Z,90.10
2017-12-04T14:37:03.447Z,90.00
2017-12-04T14:39:30.885Z,90.10
2017-12-04T14:41:59.107Z,90.10
2017-12-04T14:44:26.565Z,90.10
2017-12-04T14:46:54.008Z,90.10
2017-12-04T14:49:21.454Z,90.10
2017-12-04T14:51:48.891Z,90.00
2017-12-04T14:54:17.099Z,90.00
2017-12-04T14:56:44.552Z,90.00
2017-12-04T14:59:11.998Z,89.90
2017-12-04T15:01:39.435Z,90.00
2017-12-04T15:04:07.658Z,89.90
2017-12-04T15:06:35.935Z,89.90
2017-12-04T15:09:03.406Z,89.90
2017-12-04T15:11:30.849Z,90.00
2017-12-04T15:13:58.289Z,90.00
2017-12-04T15:16:25.722Z,89.90
2017-12-04T15:18:53.936Z,89.90
2017-12-04T15:21:21.411Z,89.90
2017-12-04T15:23:48.827Z,89.80
2017-12-04T15:26:16.285Z,89.80
2017-12-04T15:28:43.723Z,89.80
2017-12-04T15:31:11.939Z,89.90
2017-12-04T15:33:39.381Z,89.90
2017-12-04T15:36:06.817Z,90.00
2017-12-04T15:38:34.266Z,89.80
2017-12-04T15:41:02.469Z,89.70
2017-12-04T15:43:29.902Z,89.70
2017-12-04T15:45:58.114Z,89.80
2017-12-04T15:48:25.558Z,89.80
2017-12-04T15:50:53.002Z,89.80
2017-12-04T15:53:20.447Z,89.80
2017-12-04T15:55:48.669Z,89.80
2017-12-04T15:58:16.117Z,89.70
2017-12-04T16:00:43.568Z,89.80
2017-12-04T16:03:11.021Z,89.80
2017-12-04T16:05:38.466Z,89.70
2017-12-04T16:08:06.864Z,89.70
2017-12-04T16:10:40.057Z,89.80
2017-12-04T16:13:11.394Z,89.80
2017-12-04T16:15:40.912Z,89.80
2017-12-04T16:18:08.341Z,89.90
2017-12-04T16:20:36.554Z,90.00
2017-12-04T16:23:03.989Z,90.30
2017-12-04T16:25:31.448Z,89.80
2017-12-04T16:27:58.874Z,89.90
2017-12-04T16:30:27.072Z,89.80
2017-12-04T16:32:54.531Z,89.80
2017-12-04T16:35:21.986Z,89.80
2017-12-04T16:37:49.422Z,89.80
2017-12-04T16:40:17.637Z,89.90
2017-12-04T16:42:45.292Z,89.90
2017-12-04T16:45:12.935Z,89.90
2017-12-04T16:47:41.368Z,89.90
2017-12-04T16:50:08.961Z,90.30
2017-12-04T16:52:36.648Z,89.80
2017-12-04T16:55:04.852Z,89.80
2017-12-04T16:57:32.308Z,89.80
2017-12-04T16:59:59.748Z,89.80
2017-12-04T17:02:27.211Z,89.70
2017-12-04T17:04:54.661Z,89.70
2017-12-04T17:07:22.116Z,89.70
2017-12-04T17:09:49.558Z,89.60
2017-12-04T17:12:17.008Z,89.70
2017-12-04T17:14:44.447Z,89.70
2017-12-04T17:17:11.891Z,89.60
2017-12-04T17:19:39.330Z,89.60
2017-12-04T17:22:06.782Z,89.60
2017-12-04T17:24:42.029Z,89.70
2017-12-04T17:27:14.338Z,89.60
2017-12-04T17:29:42.741Z,89.50
2017-12-04T17:32:10.302Z,89.50
2017-12-04T17:34:37.728Z,89.50
2017-12-04T17:37:05.957Z,89.50
2017-12-04T17:39:33.390Z,89.50
2017-12-04T17:42:00.839Z,89.50
2017-12-04T17:44:28.283Z,89.60
2017-12-04T17:46:56.526Z,89.40
2017-12-04T17:49:23.962Z,89.40
2017-12-04T17:51:51.411Z,89.40
2017-12-04T17:54:18.865Z,89.50
2017-12-04T17:56:46.306Z,89.60
2017-12-04T17:59:13.747Z,89.50
2017-12-04T18:01:41.190Z,89.50
2017-12-04T18:04:09.411Z,89.50
2017-12-04T18:06:36.948Z,89.50
2017-12-04T18:09:04.338Z,89.50
2017-12-04T18:11:31.794Z,89.60
2017-12-04T18:13:59.241Z,89.60
2017-12-04T18:16:26.721Z,89.60
2017-12-04T18:18:54.947Z,89.50
2017-12-04T18:21:22.387Z,89.30
2017-12-04T18:23:50.610Z,89.50
2017-12-04T18:26:18.062Z,89.50
2017-12-04T18:28:45.513Z,89.40
2017-12-04T18:31:12.963Z,89.50
2017-12-04T18:33:40.415Z,89.50
2017-12-04T18:36:07.857Z,89.50
2017-12-04T18:38:36.074Z,89.50
2017-12-04T18:41:04.286Z,90.10
2017-12-04T18:43:31.743Z,89.40
2017-12-04T18:45:59.187Z,89.40
2017-12-04T18:48:26.646Z,89.50
2017-12-04T18:50:54.078Z,89.40
2017-12-04T18:53:21.614Z,89.40
2017-12-04T18:58:33.144Z,89.50
2017-12-04T19:01:00.799Z,89.50
2017-12-04T19:03:28.489Z,89.60
2017-12-04T19:05:56.147Z,89.50
2017-12-04T19:08:24.539Z,89.70
2017-12-04T19:10:52.130Z,89.70
2017-12-04T19:13:20.371Z,89.70
2017-12-04T19:15:47.769Z,89.70
2017-12-04T19:18:15.215Z,89.70
2017-12-04T19:20:42.666Z,89.80
2017-12-04T19:23:10.878Z,90.00
2017-12-04T19:25:38.335Z,90.00
2017-12-04T19:28:05.791Z,89.90
2017-12-04T19:30:33.235Z,90.00
2017-12-04T19:33:00.681Z,90.00
2017-12-04T19:35:28.131Z,90.00
2017-12-04T19:37:56.346Z,90.00
2017-12-04T19:40:23.794Z,90.00
2017-12-04T19:42:51.262Z,90.00
2017-12-04T19:45:18.708Z,90.10
2017-12-04T19:47:46.166Z,90.00
2017-12-04T19:50:13.619Z,90.00
2017-12-04T19:52:41.073Z,90.00
2017-12-04T19:55:08.502Z,89.80
2017-12-04T19:57:36.715Z,89.90
2017-12-04T20:00:04.164Z,89.90
2017-12-04T20:02:31.599Z,90.00
2017-12-04T20:04:59.046Z,89.80
2017-12-04T20:07:27.255Z,90.00
2017-12-04T20:09:54.707Z,90.00
2017-12-04T20:12:22.130Z,89.80
2017-12-04T20:14:50.358Z,89.80
2017-12-04T20:17:17.802Z,89.80
2017-12-04T20:19:45.261Z,89.80
2017-12-04T20:22:12.694Z,89.80
2017-12-04T20:24:41.304Z,89.80
2017-12-04T20:27:09.221Z,89.80
2017-12-04T20:29:36.675Z,89.70
2017-12-04T20:32:04.121Z,89.70
2017-12-04T20:34:31.573Z,89.70
2017-12-04T20:36:59.036Z,89.70
2017-12-04T20:39:26.493Z,89.70
2017-12-04T20:41:53.922Z,89.70
2017-12-04T20:44:21.383Z,89.80
2017-12-04T20:46:48.838Z,89.80
2017-12-04T20:49:16.284Z,89.80
2017-12-04T20:51:43.719Z,89.70
2017-12-04T20:54:11.167Z,89.80
2017-12-04T20:56:39.372Z,89.80
2017-12-04T20:59:06.829Z,89.70
2017-12-04T21:01:34.456Z,89.70
2017-12-04T21:04:02.918Z,90.20
2017-12-04T21:06:30.606Z,89.70
2017-12-04T21:09:11.039Z,89.70
2017-12-04T21:11:52.521Z,89.70
2017-12-04T21:14:32.003Z,89.60
2017-12-04T21:17:11.576Z,89.70
2017-12-04T21:19:39.139Z,89.70
2017-12-04T21:22:06.635Z,89.70
2017-12-04T21:24:35.063Z,89.70
2017-12-04T21:27:02.795Z,89.60
2017-12-04T21:29:31.027Z,89.60
2017-12-04T21:31:58.479Z,89.70
2017-12-04T21:34:25.928Z,89.60
2017-12-04T21:36:54.378Z,89.70
2017-12-04T21:39:22.847Z,89.70
2017-12-04T21:41:51.299Z,89.70
2017-12-04T21:44:19.059Z,89.70
2017-12-04T21:46:46.694Z,89.60
2017-12-04T21:49:14.312Z,89.60
2017-12-04T21:51:42.766Z,89.60
2017-12-04T21:54:11.423Z,89.60
2017-12-04T21:56:40.919Z,89.60
2017-12-04T21:59:08.380Z,89.50
2017-12-04T22:01:35.926Z,89.60
2017-12-04T22:04:03.421Z,89.50
2017-12-04T22:06:31.020Z,89.50
2017-12-04T22:08:59.218Z,89.50
2017-12-04T22:11:26.677Z,89.50
2017-12-04T22:13:54.114Z,89.50
2017-12-04T22:16:21.550Z,89.50
2017-12-04T22:18:49.771Z,89.50
2017-12-04T22:21:17.258Z,89.50
2017-12-04T22:23:44.718Z,89.50
2017-12-04T22:26:12.268Z,89.50
2017-12-04T22:28:39.833Z,89.50
2017-12-04T22:31:07.388Z,89.50
2017-12-04T22:33:34.875Z,89.50
2017-12-04T22:36:02.442Z,89.50
2017-12-04T22:38:30.694Z,89.50
2017-12-04T22:40:58.290Z,89.50
2017-12-04T22:43:26.571Z,89.50
2017-12-04T22:45:54.077Z,89.50
2017-12-04T22:48:21.652Z,89.50
2017-12-04T22:50:49.153Z,89.50
2017-12-04T22:53:16.713Z,89.50
2017-12-04T22:55:44.410Z,89.50
2017-12-04T22:58:11.951Z,89.50
2017-12-04T23:00:39.524Z,89.40
2017-12-04T23:03:07.088Z,89.40
2017-12-04T23:05:34.566Z,89.40
2017-12-04T23:08:02.012Z,89.40
2017-12-04T23:10:29.468Z,89.40
2017-12-04T23:12:56.920Z,89.40
2017-12-04T23:15:24.370Z,89.30
2017-12-04T23:17:51.833Z,89.30
2017-12-04T23:20:19.279Z,89.30
2017-12-04T23:22:46.735Z,89.30
2017-12-04T23:25:14.185Z,89.30
2017-12-04T23:27:41.646Z,89.30
2017-12-04T23:30:09.089Z,89.30
2017-12-04T23:32:36.542Z,89.20
2017-12-04T23:35:03.985Z,89.10
2017-12-04T23:37:32.180Z,89.10
2017-12-04T23:39:59.630Z,89.10
2017-12-04T23:42:27.056Z,89.10
2017-12-04T23:44:55.283Z,89.20
2017-12-04T23:47:22.845Z,89.10
2017-12-04T23:49:50.292Z,89.10
2017-12-04T23:52:17.726Z,89.00
2017-12-04T23:54:45.167Z,89.00
2017-12-04T23:57:13.356Z,88.90
2017-12-04T23:59:41.562Z,89.00
